createdAt,value
2022-12-03T00:00:39.793Z,101910.66
2022-12-03T00:03:27.829Z,101908.06
2022-12-03T00:05:58.350Z,101902.94
2022-12-03T00:08:28.631Z,101904.78
2022-12-03T00:10:58.957Z,101899.53
2022-12-03T00:13:30.661Z,101898.53
2022-12-03T00:16:01.797Z,101909.34
2022-12-03T00:18:34.683Z,101903.91
2022-12-03T00:21:06.755Z,101895.56
2022-12-03T00:23:42.017Z,101904.16
2022-12-03T00:26:12.710Z,101900.50
2022-12-03T00:28:43.054Z,101899.63
2022-12-03T00:31:12.994Z,101907.66
2022-12-03T00:33:46.035Z,101905.81
2022-12-03T00:36:16.119Z,101903.38
2022-12-03T00:38:46.455Z,101901.69
2022-12-03T00:41:16.372Z,101899.78
2022-12-03T00:43:46.630Z,101899.94
2022-12-03T00:46:21.157Z,101892.38
2022-12-03T00:48:55.859Z,101896.56
2022-12-03T00:51:25.752Z,101893.97
2022-12-03T00:53:56.046Z,101895.50
2022-12-03T00:56:26.232Z,101894.75
2022-12-03T00:58:56.652Z,101897.28
2022-12-03T01:01:28.532Z,101897.25
2022-12-03T01:04:01.845Z,101894.69
2022-12-03T01:06:31.943Z,101892.41
2022-12-03T01:09:02.293Z,101897.78
2022-12-03T01:11:41.475Z,101892.53
2022-12-03T01:14:14.007Z,101892.84
2022-12-03T01:16:44.777Z,101898.59
2022-12-03T01:19:18.350Z,101906.66
2022-12-03T01:21:50.181Z,101907.53
2022-12-03T01:24:21.436Z,101907.72
2022-12-03T01:26:51.553Z,101899.09
2022-12-03T01:29:21.777Z,101900.69
2022-12-03T01:32:04.324Z,101904.03
2022-12-03T01:34:37.445Z,101900.56
2022-12-03T01:37:07.343Z,101894.06
2022-12-03T01:39:37.679Z,101902.09
2022-12-03T01:42:08.119Z,101896.00
2022-12-03T01:44:41.275Z,101895.81
2022-12-03T01:47:17.822Z,101889.03
2022-12-03T01:49:53.560Z,101891.38
2022-12-03T01:52:27.302Z,101889.91
2022-12-03T01:55:00.631Z,101886.44
2022-12-03T01:57:36.183Z,101887.88
2022-12-03T02:00:08.470Z,101885.28
2022-12-03T02:02:39.728Z,101884.66
2022-12-03T02:05:19.377Z,101886.13
2022-12-03T02:07:49.853Z,101890.13
2022-12-03T02:10:24.187Z,101885.66
2022-12-03T02:12:59.883Z,101881.72
2022-12-03T02:15:30.316Z,101889.50
2022-12-03T02:18:00.496Z,101882.25
2022-12-03T02:20:36.009Z,101885.31
2022-12-03T02:23:14.752Z,101890.03
2022-12-03T02:25:47.710Z,101883.59
2022-12-03T02:28:17.639Z,101884.66
2022-12-03T02:30:47.870Z,101888.13
2022-12-03T02:33:17.927Z,101886.19
2022-12-03T02:35:48.350Z,101885.41
2022-12-03T02:38:21.250Z,101882.25
2022-12-03T02:40:58.415Z,101883.84
2022-12-03T02:43:26.263Z,101884.94
2022-12-03T02:45:59.059Z,101884.75
2022-12-03T02:48:32.565Z,101888.34
2022-12-03T02:51:05.198Z,101888.06
2022-12-03T02:53:42.334Z,101884.53
2022-12-03T02:56:17.676Z,101884.31
2022-12-03T02:58:50.147Z,101883.38
2022-12-03T03:01:20.871Z,101880.66
2022-12-03T03:03:51.892Z,101888.47
2022-12-03T03:06:23.595Z,101882.06
2022-12-03T03:08:54.236Z,101890.75
2022-12-03T03:11:27.898Z,101877.66
2022-12-03T03:13:58.292Z,101881.16
2022-12-03T03:16:28.599Z,101878.75
2022-12-03T03:18:58.588Z,101879.56
2022-12-03T03:21:28.942Z,101882.25
2022-12-03T03:23:58.805Z,101878.66
2022-12-03T03:26:31.734Z,101864.94
2022-12-03T03:29:03.153Z,101874.09
2022-12-03T03:31:33.514Z,101870.78
2022-12-03T03:34:03.630Z,101871.41
2022-12-03T03:36:34.494Z,101868.06
2022-12-03T03:39:04.608Z,101870.06
2022-12-03T03:41:38.480Z,101861.78
2022-12-03T03:44:09.948Z,101868.53
2022-12-03T03:46:41.213Z,101861.63
2022-12-03T03:49:11.911Z,101858.25
2022-12-03T03:51:42.467Z,101856.66
2022-12-03T03:54:12.446Z,101850.44
2022-12-03T03:56:45.532Z,101853.03
2022-12-03T03:59:16.345Z,101853.66
2022-12-03T04:01:47.282Z,101852.88
2022-12-03T04:04:22.094Z,101845.97
2022-12-03T04:06:52.481Z,101843.75
2022-12-03T04:09:22.390Z,101848.88
2022-12-03T04:12:07.960Z,101846.41
2022-12-03T04:14:38.094Z,101837.66
2022-12-03T04:17:08.645Z,101842.00
2022-12-03T04:19:39.023Z,101834.91
2022-12-03T04:22:22.192Z,101832.34
2022-12-03T04:25:12.602Z,101842.72
2022-12-03T04:27:58.197Z,101840.31
2022-12-03T04:30:28.458Z,101837.97
2022-12-03T04:33:20.288Z,101836.03
2022-12-03T04:35:50.742Z,101829.53
2022-12-03T04:38:21.029Z,101831.50
2022-12-03T04:41:06.617Z,101838.75
2022-12-03T04:44:00.072Z,101834.34
2022-12-03T04:46:30.029Z,101834.56
2022-12-03T04:49:00.400Z,101832.22
2022-12-03T04:51:30.574Z,101832.09
2022-12-03T04:54:00.941Z,101832.22
2022-12-03T04:56:30.892Z,101828.41
2022-12-03T04:59:03.773Z,101835.38
2022-12-03T05:01:33.856Z,101828.63
2022-12-03T05:04:04.163Z,101825.81
2022-12-03T05:06:34.121Z,101821.22
2022-12-03T05:09:04.614Z,101824.56
2022-12-03T05:11:34.896Z,101818.44
2022-12-03T05:14:08.282Z,101812.66
2022-12-03T05:16:38.358Z,101817.00
2022-12-03T05:19:10.022Z,101819.81
2022-12-03T05:21:37.347Z,101810.16
2022-12-03T05:24:08.641Z,101807.44
2022-12-03T05:26:38.780Z,101805.03
2022-12-03T05:29:11.592Z,101811.19
2022-12-03T05:31:41.514Z,101814.50
2022-12-03T05:34:11.763Z,101814.16
2022-12-03T05:36:41.692Z,101808.66
2022-12-03T05:39:11.909Z,101810.34
2022-12-03T05:41:54.268Z,101815.69
2022-12-03T05:44:27.107Z,101811.84
2022-12-03T05:46:57.026Z,101813.78
2022-12-03T05:49:27.206Z,101814.75
2022-12-03T05:51:58.840Z,101804.53
2022-12-03T05:54:29.288Z,101805.19
2022-12-03T05:56:59.210Z,101801.72
2022-12-03T05:59:32.043Z,101809.56
2022-12-03T06:02:02.659Z,101806.56
2022-12-03T06:04:32.947Z,101809.75
2022-12-03T06:07:02.942Z,101808.19
2022-12-03T06:09:33.589Z,101801.47
2022-12-03T06:12:09.572Z,101800.13
2022-12-03T06:14:45.805Z,101802.91
2022-12-03T06:17:15.724Z,101808.31
2022-12-03T06:19:45.965Z,101806.00
2022-12-03T06:22:16.045Z,101811.78
2022-12-03T06:24:46.309Z,101809.75
2022-12-03T06:27:16.386Z,101807.19
2022-12-03T06:29:49.351Z,101804.53
2022-12-03T06:32:19.332Z,101800.91
2022-12-03T06:34:49.603Z,101800.34
2022-12-03T06:37:19.869Z,101807.53
2022-12-03T06:39:50.470Z,101803.97
2022-12-03T06:42:20.729Z,101812.63
2022-12-03T06:44:54.207Z,101811.59
2022-12-03T06:47:24.697Z,101804.13
2022-12-03T06:49:55.314Z,101803.81
2022-12-03T06:52:25.523Z,101800.31
2022-12-03T06:54:56.282Z,101805.47
2022-12-03T06:57:26.914Z,101809.63
2022-12-03T07:00:00.194Z,101799.03
2022-12-03T07:02:30.508Z,101800.53
2022-12-03T07:05:01.166Z,101806.38
2022-12-03T07:07:31.427Z,101801.91
2022-12-03T07:10:02.065Z,101799.34
2022-12-03T07:12:32.785Z,101805.38
2022-12-03T07:15:08.512Z,101803.94
2022-12-03T07:17:38.775Z,101807.63
2022-12-03T07:20:10.946Z,101800.16
2022-12-03T07:22:41.151Z,101803.44
2022-12-03T07:25:12.234Z,101803.84
2022-12-03T07:27:42.488Z,101808.19
2022-12-03T07:30:18.067Z,101798.66
2022-12-03T07:32:48.265Z,101800.44
2022-12-03T07:35:18.869Z,101802.94
2022-12-03T07:37:48.858Z,101803.72
2022-12-03T07:40:21.003Z,101805.84
2022-12-03T07:42:53.395Z,101807.50
2022-12-03T07:45:26.350Z,101804.97
2022-12-03T07:47:58.839Z,101799.53
2022-12-03T07:50:29.217Z,101807.63
2022-12-03T07:52:59.264Z,101803.31
2022-12-03T07:55:29.660Z,101801.09
2022-12-03T07:57:59.576Z,101802.13
2022-12-03T08:00:32.537Z,101796.59
2022-12-03T08:03:02.497Z,101799.13
2022-12-03T08:05:33.045Z,101795.75
2022-12-03T08:08:03.001Z,101800.00
2022-12-03T08:10:36.213Z,101789.72
2022-12-03T08:13:13.391Z,101788.03
2022-12-03T08:15:46.703Z,101785.56
2022-12-03T08:18:19.529Z,101787.97
2022-12-03T08:20:51.929Z,101785.44
2022-12-03T08:23:23.691Z,101783.97
2022-12-03T08:25:55.393Z,101780.50
2022-12-03T08:28:27.108Z,101779.47
2022-12-03T08:31:05.317Z,101778.56
2022-12-03T08:33:39.724Z,101773.44
2022-12-03T08:36:15.880Z,101773.84
2022-12-03T08:38:52.297Z,101787.13
2022-12-03T08:41:43.997Z,101784.59
2022-12-03T08:44:30.278Z,101783.50
2022-12-03T08:47:16.444Z,101779.69
2022-12-03T08:49:50.182Z,101785.44
2022-12-03T08:52:23.215Z,101784.66
2022-12-03T08:54:58.944Z,101779.13
2022-12-03T08:57:32.359Z,101776.63
2022-12-03T09:00:06.454Z,101776.53
2022-12-03T09:02:39.309Z,101774.75
2022-12-03T09:05:18.461Z,101785.72
2022-12-03T09:07:48.881Z,101777.16
2022-12-03T09:10:19.113Z,101776.38
2022-12-03T09:12:49.446Z,101775.44
2022-12-03T09:15:19.691Z,101777.91
2022-12-03T09:17:52.587Z,101771.88
2022-12-03T09:20:22.617Z,101771.84
2022-12-03T09:22:53.458Z,101763.38
2022-12-03T09:25:23.392Z,101764.25
2022-12-03T09:27:53.723Z,101764.38
2022-12-03T09:30:23.713Z,101765.81
2022-12-03T09:32:56.873Z,101756.59
2022-12-03T09:35:27.847Z,101757.50
2022-12-03T09:38:01.024Z,101755.53
2022-12-03T09:40:33.246Z,101755.53
2022-12-03T09:43:03.938Z,101758.06
2022-12-03T09:45:34.001Z,101754.91
2022-12-03T09:48:07.655Z,101755.69
2022-12-03T09:50:51.983Z,101758.84
2022-12-03T09:53:26.007Z,101752.22
2022-12-03T09:56:01.441Z,101747.50
2022-12-03T09:58:34.929Z,101742.53
2022-12-03T10:01:05.134Z,101746.56
2022-12-03T10:03:41.049Z,101739.94
2022-12-03T10:06:13.121Z,101744.38
2022-12-03T10:08:43.441Z,101737.19
2022-12-03T10:11:13.385Z,101729.22
2022-12-03T10:13:56.488Z,101727.66
2022-12-03T10:16:30.498Z,101728.53
2022-12-03T10:19:05.397Z,101730.16
2022-12-03T10:21:40.003Z,101725.97
2022-12-03T10:24:36.141Z,101733.63
2022-12-03T10:27:25.462Z,101727.66
2022-12-03T10:30:01.209Z,101725.13
2022-12-03T10:32:43.709Z,101716.28
2022-12-03T10:35:23.319Z,101717.81
2022-12-03T10:38:12.389Z,101716.94
2022-12-03T10:40:42.875Z,101715.75
2022-12-03T10:43:18.771Z,101708.69
2022-12-03T10:45:50.462Z,101713.22
2022-12-03T10:48:27.506Z,101715.81
2022-12-03T10:51:24.371Z,101715.59
2022-12-03T10:54:00.754Z,101712.84
2022-12-03T10:56:32.445Z,101713.88
2022-12-03T10:59:03.156Z,101710.50
2022-12-03T11:01:37.324Z,101709.53
2022-12-03T11:04:22.590Z,101707.19
2022-12-03T11:07:06.269Z,101709.59
2022-12-03T11:10:02.820Z,101708.78
2022-12-03T11:12:38.141Z,101705.25
2022-12-03T11:15:22.235Z,101700.72
2022-12-03T11:18:02.471Z,101697.47
2022-12-03T11:21:10.376Z,101693.84
2022-12-03T11:24:31.479Z,101693.72
2022-12-03T11:27:30.760Z,101679.13
2022-12-03T11:30:03.253Z,101675.63
2022-12-03T11:33:11.506Z,101676.50
2022-12-03T11:36:36.397Z,101675.81
2022-12-03T11:39:11.183Z,101676.00
2022-12-03T11:41:41.795Z,101673.22
2022-12-03T11:44:34.149Z,101671.41
2022-12-03T11:47:16.765Z,101673.00
2022-12-03T11:49:51.076Z,101659.28
2022-12-03T11:52:25.464Z,101667.63
2022-12-03T11:55:01.734Z,101659.78
2022-12-03T11:57:43.300Z,101667.53
2022-12-03T12:00:25.432Z,101674.69
2022-12-03T12:03:00.889Z,101670.50
2022-12-03T12:05:35.618Z,101672.69
2022-12-03T12:08:06.449Z,101665.81
2022-12-03T12:10:48.545Z,101663.13
2022-12-03T12:13:51.915Z,101669.81
2022-12-03T12:16:53.076Z,101664.59
2022-12-03T12:19:54.369Z,101664.31
2022-12-03T12:22:33.517Z,101658.16
2022-12-03T12:25:05.141Z,101653.75
2022-12-03T12:27:39.384Z,101653.84
2022-12-03T12:30:12.563Z,101654.22
2022-12-03T12:32:49.179Z,101661.94
2022-12-03T12:35:26.204Z,101656.84
2022-12-03T12:38:00.197Z,101646.53
2022-12-03T12:40:38.598Z,101649.97
2022-12-03T12:43:24.892Z,101642.53
2022-12-03T12:45:58.077Z,101651.78
2022-12-03T12:48:38.274Z,101642.81
2022-12-03T12:51:14.686Z,101649.81
2022-12-03T12:53:53.827Z,101640.09
2022-12-03T12:56:27.547Z,101635.25
2022-12-03T12:58:57.576Z,101632.41
2022-12-03T13:01:47.937Z,101617.44
2022-12-03T13:04:22.183Z,101617.50
2022-12-03T13:06:55.059Z,101615.75
2022-12-03T13:09:27.261Z,101609.00
2022-12-03T13:12:00.686Z,101610.69
2022-12-03T13:14:37.776Z,101611.66
2022-12-03T13:17:16.747Z,101619.47
2022-12-03T13:19:55.848Z,101608.88
2022-12-03T13:22:31.364Z,101608.59
2022-12-03T13:25:32.622Z,101609.19
2022-12-03T13:28:07.922Z,101602.84
2022-12-03T13:30:37.950Z,101611.25
2022-12-03T13:33:16.114Z,101606.00
2022-12-03T13:35:58.866Z,101604.31
2022-12-03T13:38:30.861Z,101610.47
2022-12-03T13:41:06.882Z,101605.09
2022-12-03T13:43:45.482Z,101602.34
2022-12-03T13:46:19.086Z,101604.72
2022-12-03T13:48:56.367Z,101598.69
2022-12-03T13:51:37.921Z,101599.72
2022-12-03T13:54:25.616Z,101598.94
2022-12-03T13:57:02.471Z,101598.69
2022-12-03T13:59:32.519Z,101602.44
2022-12-03T14:02:02.885Z,101603.91
2022-12-03T14:04:33.190Z,101598.84
2022-12-03T14:07:07.586Z,101600.69
2022-12-03T14:09:37.529Z,101602.06
2022-12-03T14:12:20.934Z,101590.72
2022-12-03T14:14:51.002Z,101595.97
2022-12-03T14:17:23.723Z,101595.25
2022-12-03T14:19:54.304Z,101599.47
2022-12-03T14:22:27.508Z,101601.34
2022-12-03T14:24:59.656Z,101601.53
2022-12-03T14:27:30.109Z,101598.59
2022-12-03T14:30:00.182Z,101598.94
2022-12-03T14:32:30.443Z,101594.94
2022-12-03T14:35:03.876Z,101594.72
2022-12-03T14:37:39.650Z,101593.63
2022-12-03T14:40:13.183Z,101591.34
2022-12-03T14:42:45.732Z,101595.31
2022-12-03T14:45:15.613Z,101595.06
2022-12-03T14:47:45.862Z,101597.13
2022-12-03T14:50:18.196Z,101597.06
2022-12-03T14:52:53.956Z,101596.53
2022-12-03T14:55:24.039Z,101595.44
2022-12-03T14:57:55.601Z,101604.72
2022-12-03T15:00:25.770Z,101598.50
2022-12-03T15:02:56.170Z,101600.50
2022-12-03T15:05:37.747Z,101598.50
2022-12-03T15:08:11.258Z,101597.59
2022-12-03T15:10:41.225Z,101596.75
2022-12-03T15:13:11.520Z,101598.47
2022-12-03T15:15:41.579Z,101607.25
2022-12-03T15:18:11.819Z,101604.72
2022-12-03T15:20:41.858Z,101602.19
2022-12-03T15:23:20.767Z,101608.88
2022-12-03T15:26:00.919Z,101609.63
2022-12-03T15:28:31.414Z,101609.56
2022-12-03T15:31:01.391Z,101604.44
2022-12-03T15:33:34.235Z,101607.31
2022-12-03T15:36:07.739Z,101608.28
2022-12-03T15:38:40.597Z,101605.50
2022-12-03T15:41:23.674Z,101599.75
2022-12-03T15:43:57.943Z,101597.84
2022-12-03T15:46:31.471Z,101609.09
2022-12-03T15:49:02.372Z,101602.19
2022-12-03T15:51:32.483Z,101601.22
2022-12-03T15:54:06.463Z,101602.91
2022-12-03T15:56:37.865Z,101593.50
2022-12-03T15:59:08.475Z,101598.75
2022-12-03T16:01:42.295Z,101597.59
2022-12-03T16:04:17.515Z,101589.94
2022-12-03T16:06:51.326Z,101595.25
2022-12-03T16:09:27.762Z,101598.69
2022-12-03T16:12:02.286Z,101592.13
2022-12-03T16:14:33.044Z,101591.81
2022-12-03T16:17:07.864Z,101596.22
2022-12-03T16:19:40.746Z,101594.47
2022-12-03T16:22:17.208Z,101586.69
2022-12-03T16:24:52.522Z,101592.75
2022-12-03T16:27:26.001Z,101589.50
2022-12-03T16:30:01.515Z,101589.16
2022-12-03T16:32:31.784Z,101584.19
2022-12-03T16:35:07.150Z,101581.72
2022-12-03T16:37:37.379Z,101584.75
2022-12-03T16:40:12.079Z,101584.75
2022-12-03T16:42:42.336Z,101590.72
2022-12-03T16:45:33.874Z,101583.97
2022-12-03T16:48:04.584Z,101584.69
2022-12-03T16:50:38.426Z,101588.19
2022-12-03T16:53:10.515Z,101591.63
2022-12-03T16:55:49.148Z,101580.81
2022-12-03T16:58:21.861Z,101589.50
2022-12-03T17:01:00.742Z,101597.78
2022-12-03T17:03:35.885Z,101588.38
2022-12-03T17:06:07.803Z,101591.75
2022-12-03T17:08:44.368Z,101589.16
2022-12-03T17:11:20.883Z,101587.59
2022-12-03T17:13:51.305Z,101586.13
2022-12-03T17:16:21.940Z,101584.47
2022-12-03T17:18:52.188Z,101586.97
2022-12-03T17:21:30.797Z,101585.97
2022-12-03T17:24:03.745Z,101585.84
2022-12-03T17:26:48.027Z,101579.03
2022-12-03T17:29:22.392Z,101576.19
2022-12-03T17:31:53.955Z,101582.91
2022-12-03T17:34:26.186Z,101575.94
2022-12-03T17:37:00.317Z,101578.63
2022-12-03T17:39:30.647Z,101573.84
2022-12-03T17:42:08.059Z,101574.44
2022-12-03T17:44:48.994Z,101582.94
2022-12-03T17:47:27.706Z,101567.63
2022-12-03T17:49:58.027Z,101573.44
2022-12-03T17:52:28.618Z,101567.22
2022-12-03T17:55:21.128Z,101573.19
2022-12-03T17:57:58.562Z,101568.16
2022-12-03T18:00:30.095Z,101568.25
2022-12-03T18:03:00.957Z,101571.56
2022-12-03T18:05:37.791Z,101570.66
2022-12-03T18:08:09.403Z,101573.97
2022-12-03T18:10:48.729Z,101570.72
2022-12-03T18:13:24.453Z,101569.44
2022-12-03T18:15:54.817Z,101573.84
2022-12-03T18:18:27.492Z,101571.06
2022-12-03T18:21:09.708Z,101572.66
2022-12-03T18:23:58.450Z,101573.88
2022-12-03T18:26:38.814Z,101571.78
2022-12-03T18:29:37.532Z,101576.06
2022-12-03T18:32:28.765Z,101576.19
2022-12-03T18:35:03.236Z,101576.13
2022-12-03T18:37:39.455Z,101576.06
2022-12-03T18:40:39.774Z,101572.19
2022-12-03T18:46:45.089Z,101570.88
2022-12-03T18:49:35.841Z,101564.75
2022-12-03T18:52:29.210Z,101563.88
2022-12-03T18:55:57.432Z,101555.94
2022-12-03T19:02:03.298Z,101563.72
2022-12-03T19:08:21.375Z,101560.50
2022-12-03T19:13:45.955Z,101563.97
2022-12-03T19:16:24.227Z,101567.38
2022-12-03T19:19:43.864Z,101568.47
2022-12-03T19:22:54.566Z,101575.16
2022-12-03T19:25:31.793Z,101570.28
2022-12-03T19:28:19.877Z,101577.16
2022-12-03T19:31:32.677Z,101575.94
2022-12-03T19:34:06.043Z,101575.16
2022-12-03T19:36:47.867Z,101576.06
2022-12-03T19:39:58.550Z,101580.41
2022-12-03T19:42:36.901Z,101581.13
2022-12-03T19:45:13.456Z,101574.34
2022-12-03T19:47:49.057Z,101578.91
2022-12-03T19:50:25.491Z,101570.97
2022-12-03T19:53:09.013Z,101570.88
2022-12-03T19:56:24.550Z,101574.38
2022-12-03T19:59:03.785Z,101574.75
2022-12-03T20:01:49.699Z,101575.47
2022-12-03T20:04:31.599Z,101570.16
2022-12-03T20:07:33.501Z,101569.94
2022-12-03T20:10:18.060Z,101574.44
2022-12-03T20:13:09.963Z,101568.41
2022-12-03T20:16:22.673Z,101567.50
2022-12-03T20:19:41.667Z,101570.06
2022-12-03T20:22:22.797Z,101567.50
2022-12-03T20:25:16.755Z,101557.31
2022-12-03T20:28:13.880Z,101570.09
2022-12-03T20:31:40.536Z,101573.47
2022-12-03T20:34:22.901Z,101571.13
2022-12-03T20:37:44.220Z,101578.66
2022-12-03T20:41:10.568Z,101577.94
2022-12-03T20:44:25.806Z,101578.97
2022-12-03T20:47:23.795Z,101578.00
2022-12-03T20:50:23.631Z,101577.84
2022-12-03T20:53:27.439Z,101573.59
2022-12-03T20:59:23.560Z,101571.91
2022-12-03T21:01:55.618Z,101574.34
2022-12-03T21:04:33.073Z,101575.00
2022-12-03T21:07:23.452Z,101571.63
2022-12-03T21:13:15.224Z,101579.28
2022-12-03T21:16:07.594Z,101572.56
2022-12-03T21:18:41.957Z,101569.97
2022-12-03T21:21:19.215Z,101574.16
2022-12-03T21:23:54.130Z,101560.63
2022-12-03T21:26:34.252Z,101566.47
2022-12-03T21:29:14.598Z,101558.66
2022-12-03T21:31:44.810Z,101558.78
2022-12-03T21:34:17.873Z,101556.06
2022-12-03T21:36:50.492Z,101561.03
2022-12-03T21:39:21.666Z,101552.72
2022-12-03T21:42:18.629Z,101555.88
2022-12-03T21:44:43.261Z,101544.53
2022-12-03T21:47:14.488Z,101551.38
2022-12-03T21:49:45.348Z,101542.03
2022-12-03T21:52:17.910Z,101541.94
2022-12-03T21:54:49.849Z,101553.09
2022-12-03T21:57:19.941Z,101551.72
2022-12-03T21:59:50.937Z,101544.78
2022-12-03T22:02:21.080Z,101562.97
2022-12-03T22:04:53.432Z,101566.38
2022-12-03T22:07:26.887Z,101562.94
2022-12-03T22:09:59.135Z,101557.59
2022-12-03T22:12:29.565Z,101559.56
2022-12-03T22:14:59.969Z,101554.25
2022-12-03T22:17:30.412Z,101547.31
2022-12-03T22:20:00.803Z,101550.75
2022-12-03T22:22:33.448Z,101535.91
2022-12-03T22:25:03.974Z,101548.16
2022-12-03T22:27:34.589Z,101542.34
2022-12-03T22:30:06.637Z,101544.16
2022-12-03T22:32:37.169Z,101545.81
2022-12-03T22:35:09.120Z,101544.13
2022-12-03T22:37:43.037Z,101544.72
2022-12-03T22:40:17.725Z,101554.25
2022-12-03T22:42:50.900Z,101549.13
2022-12-03T22:45:22.382Z,101535.31
2022-12-03T22:47:52.578Z,101535.31
2022-12-03T22:50:23.414Z,101532.53
2022-12-03T22:52:56.392Z,101524.78
2022-12-03T22:55:26.920Z,101528.13
2022-12-03T22:57:56.980Z,101523.78
2022-12-03T23:00:33.494Z,101525.56
2022-12-03T23:03:04.407Z,101524.78
2022-12-03T23:05:38.680Z,101529.06
2022-12-03T23:08:13.990Z,101518.44
2022-12-03T23:10:47.665Z,101521.94
2022-12-03T23:13:18.980Z,101518.59
2022-12-03T23:15:55.978Z,101515.97
2022-12-03T23:18:28.138Z,101515.34
2022-12-03T23:21:03.173Z,101503.00
2022-12-03T23:23:38.644Z,101505.59
2022-12-03T23:26:14.339Z,101511.03
2022-12-03T23:28:50.725Z,101510.16
2022-12-03T23:31:28.806Z,101501.72
2022-12-03T23:34:09.510Z,101505.06
2022-12-03T23:36:39.861Z,101495.47
2022-12-03T23:39:12.385Z,101491.22
2022-12-03T23:41:42.671Z,101498.09
2022-12-03T23:44:12.828Z,101495.38
2022-12-03T23:46:44.348Z,101498.47
2022-12-03T23:49:14.414Z,101486.94
2022-12-03T23:51:44.708Z,101490.16
2022-12-03T23:54:17.227Z,101493.56
2022-12-03T23:56:47.495Z,101494.31
2022-12-03T23:59:17.504Z,101498.63
